Portada
METAR-TAF:

METAR-TAF

Aeroports :

Gumru, Armènia

latitud: 40-45-01N, longitud: 043-51-33E, altitud: 1524 m

Observació

L'informe es va fer fa 27 minuts, a les 02:00 UTC
Vent 3 kt del Est/Nord-Est
Temperatura -14°C
Humitat 78%
Pressió 1023 hPa
Visibilitat 10 km o més

METAR: UDSG 270200Z 07003KT 9999 NSC M14/M17 Q1023 R02/CLRD70 NOSIG

Hora: 06:27 (02:27 UTC)

Pronòstic

L'informe es va fer fa 3 hores i 24 minuts, a les 23:03 UTC
Pronòstic vàlid del 27 a les 00 UTC al 27 a les 24 UTC
Vent 6 kt amb direcció variable
Visibilitat 10 km o més
Escasses núvols a una alçada de 5000 ft
Temporalment
l' 27 a les 01 UTC al 27 a les 06 UTC
Visibilitat: 5000 m
boirina

TAF: UDSG 262303Z 2700/2724 VRB06KT 9999 FEW050 TEMPO 2701/2706 5000 BR

Observacions i pronòstics meteorològics de més de 4000 aeroports (METAR i TAF).

Les estacions disponibles són els punts grocs i vermells al mapa.

Posi el ratolí al punt desitjat per veure el nom de l'estació.

Feu clic per veure les observacions i els pronòstics meteorològics.

Per canviar el mapa: feu clic els botons verds amb una creu de color negre per apropar; al botó verd amb un guió per allunyar la imatge; o en les fletxes verdes per a mapes adjacents.


METAR-TAF: